Time;durP1;ratioP1;P1;durP2;ratioP2;P2;SDS_P1;SDS_P2;PMS_P1;PMS_P2;Temp;Humidity;BMP_temperature;BMP_pressure;BME280_temperature;BME280_humidity;BME280_pressure;Samples;Min_cycle;Max_cycle;Signal;HPM_P1;HPM_P2
2022/07/22 00:00:06;;;;;;;15.57;11.35;;;18.30;99.90;;;;;;5111106;28;20084;-58
2022/07/22 00:02:33;;;;;;;19.98;11.40;;;18.20;99.90;;;;;;5111281;28;20047;-60
2022/07/22 00:05:00;;;;;;;16.42;10.95;;;18.20;99.90;;;;;;5112552;28;20031;-60
2022/07/22 00:07:27;;;;;;;19.02;10.52;;;18.20;99.90;;;;;;5105294;28;20050;-60
2022/07/22 00:09:53;;;;;;;17.10;10.88;;;18.20;99.90;;;;;;5112433;28;20039;-60
2022/07/22 00:12:20;;;;;;;16.00;10.63;;;18.20;99.90;;;;;;5112897;28;20043;-60
2022/07/22 00:14:47;;;;;;;17.42;11.02;;;18.30;99.90;;;;;;5106204;28;20055;-60
2022/07/22 00:17:14;;;;;;;19.40;11.57;;;18.30;99.90;;;;;;5106057;27;20031;-60
2022/07/22 00:19:41;;;;;;;17.20;11.52;;;18.30;99.90;;;;;;5112559;28;20042;-60
2022/07/22 00:22:07;;;;;;;18.83;11.57;;;18.30;99.90;;;;;;5112227;28;20055;-59
2022/07/22 00:24:34;;;;;;;18.98;11.15;;;18.30;99.90;;;;;;5108776;28;20541;-59
2022/07/22 00:27:01;;;;;;;15.38;11.02;;;18.40;99.90;;;;;;5112560;28;20040;-60
2022/07/22 00:29:28;;;;;;;18.27;11.27;;;18.40;99.90;;;;;;5111252;28;20109;-60
2022/07/22 00:31:55;;;;;;;15.85;11.48;;;18.40;99.90;;;;;;5109325;27;20046;-60
2022/07/22 00:34:22;;;;;;;17.48;11.07;;;18.40;99.90;;;;;;5106471;28;20039;-59
2022/07/22 00:36:50;;;;;;;18.95;11.98;;;18.40;99.90;;;;;;5110722;28;20047;-60
2022/07/22 00:39:17;;;;;;;19.20;10.25;;;18.40;99.90;;;;;;5109907;28;20035;-60
2022/07/22 00:41:44;;;;;;;19.80;10.75;;;18.40;99.90;;;;;;5111610;28;20047;-60
2022/07/22 00:44:11;;;;;;;18.00;10.60;;;18.40;99.90;;;;;;5110991;28;20044;-60
2022/07/22 00:46:40;;;;;;;15.80;10.25;;;18.40;99.90;;;;;;5109623;28;20039;-59
2022/07/22 00:49:08;;;;;;;19.77;11.20;;;18.40;99.90;;;;;;5119907;27;20063;-60
2022/07/22 00:51:37;;;;;;;16.77;10.88;;;18.40;99.90;;;;;;5110279;28;20051;-60
2022/07/22 00:54:04;;;;;;;17.42;11.30;;;18.30;99.90;;;;;;5127792;27;20457;-60
2022/07/22 00:56:31;;;;;;;17.13;11.13;;;18.20;99.90;;;;;;5110044;28;20050;-60
2022/07/22 00:59:00;;;;;;;;;;;18.20;99.90;;;;;;5110953;28;20073;-60
2022/07/22 01:01:27;;;;;;;14.63;9.93;;;18.20;99.90;;;;;;5111739;28;19923;-60
2022/07/22 01:03:54;;;;;;;19.45;10.35;;;18.10;99.90;;;;;;5110544;28;20039;-59
2022/07/22 01:06:29;;;;;;;20.17;11.30;;;18.10;99.90;;;;;;5111760;27;20110;-59
2022/07/22 01:08:56;;;;;;;19.77;10.05;;;18.10;99.90;;;;;;5112037;28;20059;-60
2022/07/22 01:11:24;;;;;;;17.52;10.68;;;18.00;99.90;;;;;;5105806;28;20039;-59
2022/07/22 01:13:53;;;;;;;16.73;11.10;;;18.10;99.90;;;;;;5108773;28;20043;-59
2022/07/22 01:16:20;;;;;;;18.00;11.35;;;18.00;99.90;;;;;;5111728;28;20039;-60
2022/07/22 01:18:47;;;;;;;16.88;10.73;;;18.00;99.90;;;;;;5126521;28;20042;-59
2022/07/22 01:21:15;;;;;;;18.88;11.05;;;18.00;99.90;;;;;;5104333;28;20043;-59
2022/07/22 01:23:43;;;;;;;18.27;11.05;;;18.00;99.90;;;;;;5110349;28;20393;-60
2022/07/22 01:26:11;;;;;;;18.35;11.27;;;18.00;99.90;;;;;;5110602;28;20122;-59
2022/07/22 01:28:38;;;;;;;16.05;10.82;;;17.90;99.90;;;;;;5106766;28;20094;-59
2022/07/22 01:31:05;;;;;;;18.10;11.02;;;17.90;99.90;;;;;;5101486;28;20044;-60
2022/07/22 01:33:34;;;;;;;17.83;11.13;;;18.00;99.90;;;;;;5127485;28;20048;-59
2022/07/22 01:36:01;;;;;;;18.05;10.35;;;18.00;99.90;;;;;;5110515;28;20130;-60
2022/07/22 01:38:28;;;;;;;20.30;11.40;;;18.00;99.90;;;;;;5113602;28;20040;-60
2022/07/22 01:40:55;;;;;;;17.90;10.43;;;18.00;99.90;;;;;;5114360;28;20049;-60
2022/07/22 01:43:23;;;;;;;16.08;10.25;;;18.10;99.90;;;;;;5114375;28;20039;-59
2022/07/22 01:45:52;;;;;;;17.58;10.13;;;18.00;99.90;;;;;;5105999;28;20093;-59
2022/07/22 01:48:20;;;;;;;15.57;10.57;;;18.00;99.90;;;;;;5114212;28;20582;-59
2022/07/22 01:50:48;;;;;;;15.82;10.75;;;18.00;99.90;;;;;;5114043;28;20051;-59
2022/07/22 01:53:16;;;;;;;17.25;10.35;;;18.00;99.90;;;;;;5114052;28;20055;-59
2022/07/22 01:55:44;;;;;;;20.05;9.82;;;18.00;99.90;;;;;;5113711;28;20071;-59
2022/07/22 01:58:12;;;;;;;17.52;11.18;;;17.90;99.90;;;;;;5113759;28;20042;-59
2022/07/22 02:00:41;;;;;;;15.00;9.77;;;17.90;99.90;;;;;;5113798;28;20039;-59
2022/07/22 02:03:08;;;;;;;15.48;10.30;;;17.90;99.90;;;;;;5111675;27;20151;-60
2022/07/22 02:05:34;;;;;;;14.13;9.88;;;17.90;99.90;;;;;;5109846;28;20038;-59
2022/07/22 02:08:10;;;;;;;16.50;10.63;;;17.90;99.90;;;;;;5093609;28;20055;-60
2022/07/22 02:10:56;;;;;;;14.55;10.98;;;17.90;99.90;;;;;;5094877;28;20097;-59
2022/07/22 02:13:23;;;;;;;16.98;10.50;;;17.90;99.90;;;;;;5113299;27;20040;-59
2022/07/22 02:15:49;;;;;;;17.55;9.77;;;17.90;99.90;;;;;;5113794;28;20120;-59
2022/07/22 02:18:18;;;;;;;19.90;10.63;;;17.90;99.90;;;;;;5115283;28;20388;-59
2022/07/22 02:20:45;;;;;;;18.70;10.68;;;17.90;99.90;;;;;;5114535;28;20040;-60
2022/07/22 02:23:14;;;;;;;15.70;10.27;;;17.90;99.90;;;;;;5109440;28;20115;-59
2022/07/22 02:25:42;;;;;;;15.65;10.63;;;17.80;99.90;;;;;;5113653;28;20077;-59
2022/07/22 02:28:09;;;;;;;19.65;11.43;;;17.80;99.90;;;;;;5113563;28;20055;-59
2022/07/22 02:30:37;;;;;;;16.27;10.25;;;17.80;99.90;;;;;;5109444;28;20063;-59
2022/07/22 02:33:04;;;;;;;16.08;10.98;;;17.70;99.90;;;;;;5113154;28;20044;-59
2022/07/22 02:35:32;;;;;;;16.55;11.25;;;17.70;99.90;;;;;;5113490;28;20464;-59
2022/07/22 02:37:59;;;;;;;20.10;11.30;;;17.70;99.90;;;;;;5113304;28;20044;-59
2022/07/22 02:40:28;;;;;;;18.00;10.77;;;17.60;99.90;;;;;;5112028;28;20098;-59
2022/07/22 02:42:55;;;;;;;16.95;10.65;;;17.60;99.90;;;;;;5113393;28;20441;-59
2022/07/22 02:45:23;;;;;;;19.85;10.40;;;17.60;99.90;;;;;;5113371;28;20411;-59
2022/07/22 02:47:53;;;;;;;19.48;10.20;;;17.50;99.90;;;;;;5112590;28;20112;-59
2022/07/22 02:50:24;;;;;;;16.98;10.13;;;17.50;99.90;;;;;;5112274;27;20039;-59
2022/07/22 02:52:51;;;;;;;20.02;11.48;;;17.40;99.90;;;;;;5113093;28;20050;-59
2022/07/22 02:55:19;;;;;;;17.30;11.02;;;17.50;99.90;;;;;;5113130;28;20095;-59
2022/07/22 02:57:47;;;;;;;18.15;10.90;;;17.60;99.90;;;;;;5112921;28;20046;-59
2022/07/22 03:00:15;;;;;;;;;;;17.40;99.90;;;;;;5112516;28;20132;-59
2022/07/22 03:02:44;;;;;;;16.67;11.07;;;17.40;99.90;;;;;;5114135;28;19945;-59
2022/07/22 03:05:12;;;;;;;18.88;11.50;;;17.30;99.90;;;;;;5112958;28;20082;-59
2022/07/22 03:07:48;;;;;;;16.48;10.85;;;17.40;99.90;;;;;;5109577;28;20090;-59
2022/07/22 03:10:15;;;;;;;19.65;10.68;;;17.30;99.90;;;;;;5112136;28;20075;-59
2022/07/22 03:12:42;;;;;;;15.52;10.27;;;17.30;99.90;;;;;;5112919;28;20050;-59
2022/07/22 03:15:09;;;;;;;20.40;10.90;;;17.30;99.90;;;;;;5112672;28;20050;-60
2022/07/22 03:17:36;;;;;;;;;;;17.30;99.90;;;;;;5112797;28;20089;-60
2022/07/22 03:20:06;;;;;;;18.10;10.50;;;17.30;99.90;;;;;;5091898;28;19919;-60
2022/07/22 03:22:33;;;;;;;23.08;11.32;;;17.30;99.90;;;;;;5109329;28;20036;-59
2022/07/22 03:25:01;;;;;;;18.13;11.60;;;17.30;99.90;;;;;;5109009;28;20093;-59
2022/07/22 03:27:28;;;;;;;17.65;11.02;;;17.30;99.90;;;;;;5109108;28;20036;-59
2022/07/22 03:29:55;;;;;;;18.75;11.25;;;17.20;99.90;;;;;;5111817;28;20097;-59
2022/07/22 03:32:22;;;;;;;21.77;11.32;;;17.20;99.90;;;;;;5113731;28;20054;-59
2022/07/22 03:34:49;;;;;;;20.63;11.23;;;17.10;99.90;;;;;;5109976;27;20500;-60
2022/07/22 03:37:16;;;;;;;;;;;17.20;99.90;;;;;;5112519;28;20561;-59
2022/07/22 03:39:43;;;;;;;16.45;10.88;;;17.20;99.90;;;;;;5112128;28;20389;-59
2022/07/22 03:42:11;;;;;;;17.65;10.43;;;17.20;99.90;;;;;;5102670;28;20079;-60
2022/07/22 03:44:46;;;;;;;18.02;10.68;;;17.20;99.90;;;;;;5108669;28;20047;-59
2022/07/22 03:47:22;;;;;;;16.67;10.30;;;17.30;99.90;;;;;;5101356;28;20048;-60
2022/07/22 03:49:50;;;;;;;17.40;10.15;;;17.30;99.90;;;;;;5091706;28;20564;-60
2022/07/22 03:52:24;;;;;;;16.90;11.20;;;17.30;99.90;;;;;;5091064;28;20504;-60
2022/07/22 03:54:50;;;;;;;16.20;10.65;;;17.30;99.90;;;;;;5109352;28;20431;-60
2022/07/22 03:57:18;;;;;;;20.30;11.30;;;17.30;99.90;;;;;;5111685;28;20466;-59
2022/07/22 03:59:46;;;;;;;16.55;10.38;;;17.20;99.90;;;;;;5110777;28;20079;-59
2022/07/22 04:02:13;;;;;;;17.40;10.02;;;17.20;99.90;;;;;;5092673;28;20135;-60
2022/07/22 04:04:40;;;;;;;17.75;10.75;;;17.20;99.90;;;;;;5104371;28;20096;-59
2022/07/22 04:07:07;;;;;;;18.38;10.82;;;17.20;99.90;;;;;;5111279;28;20063;-60
2022/07/22 04:09:35;;;;;;;21.95;11.55;;;17.20;99.90;;;;;;5099688;28;20044;-60
2022/07/22 04:12:03;;;;;;;16.65;10.07;;;17.20;99.90;;;;;;5090452;28;20116;-60
2022/07/22 04:14:35;;;;;;;18.25;10.73;;;17.20;99.90;;;;;;5108772;28;20032;-59
2022/07/22 04:17:02;;;;;;;19.75;10.73;;;17.20;99.90;;;;;;5089258;28;20040;-60
2022/07/22 04:19:29;;;;;;;18.65;10.52;;;17.30;99.90;;;;;;5109907;28;20388;-60
2022/07/22 04:21:58;;;;;;;17.67;11.10;;;17.20;99.90;;;;;;5109201;28;20036;-60
2022/07/22 04:24:28;;;;;;;16.55;11.48;;;17.30;99.90;;;;;;5110885;28;20084;-60
2022/07/22 04:26:55;;;;;;;16.48;10.52;;;17.20;99.90;;;;;;5110921;28;20056;-60
2022/07/22 04:29:23;;;;;;;21.60;11.45;;;17.30;99.90;;;;;;5110256;27;20044;-60
2022/07/22 04:31:50;;;;;;;16.55;11.30;;;17.30;99.90;;;;;;5110879;28;20098;-60
2022/07/22 04:34:18;;;;;;;23.00;11.77;;;17.40;99.90;;;;;;5111144;28;20036;-60
2022/07/22 04:36:47;;;;;;;16.05;11.20;;;17.40;99.90;;;;;;5098376;27;20081;-60
2022/07/22 04:39:14;;;;;;;20.02;12.07;;;17.50;99.90;;;;;;5111065;28;20043;-60
2022/07/22 04:41:47;;;;;;;19.85;11.95;;;17.50;99.90;;;;;;5110805;28;20047;-61
2022/07/22 04:44:17;;;;;;;19.25;12.00;;;17.60;99.90;;;;;;5110938;28;20143;-60
2022/07/22 04:46:43;;;;;;;18.20;12.02;;;17.70;99.90;;;;;;5101977;28;20055;-61
2022/07/22 04:49:10;;;;;;;19.48;11.68;;;17.60;99.90;;;;;;5094118;28;20047;-60
2022/07/22 04:51:37;;;;;;;20.02;12.57;;;17.60;99.90;;;;;;5110504;28;20397;-61
2022/07/22 04:54:07;;;;;;;21.38;12.80;;;17.70;99.90;;;;;;5093912;28;20042;-60
2022/07/22 04:56:39;;;;;;;20.90;12.02;;;17.70;99.90;;;;;;5110080;28;20075;-59
2022/07/22 04:59:07;;;;;;;22.38;13.70;;;17.70;99.90;;;;;;5110064;28;20100;-59
2022/07/22 05:01:35;;;;;;;25.95;13.63;;;17.80;99.90;;;;;;5108816;28;20457;-61
2022/07/22 05:04:04;;;;;;;27.25;13.85;;;17.90;99.90;;;;;;5105984;28;20044;-61
2022/07/22 05:06:32;;;;;;;23.20;13.75;;;17.90;99.90;;;;;;5109962;28;20067;-61
2022/07/22 05:09:00;;;;;;;21.33;12.68;;;18.00;99.90;;;;;;5109664;28;20131;-60
2022/07/22 05:11:29;;;;;;;24.05;13.57;;;18.00;99.90;;;;;;5109294;28;20044;-61
2022/07/22 05:13:56;;;;;;;19.63;13.25;;;18.10;99.90;;;;;;5110445;28;20048;-61
2022/07/22 05:16:24;;;;;;;23.52;13.88;;;18.20;99.90;;;;;;5110246;28;20532;-61
2022/07/22 05:18:51;;;;;;;24.25;13.40;;;18.20;99.90;;;;;;5110511;28;20496;-60
2022/07/22 05:21:19;;;;;;;22.88;14.27;;;18.20;99.90;;;;;;5106358;28;20114;-60
2022/07/22 05:23:46;;;;;;;21.88;13.93;;;18.30;99.90;;;;;;5102923;28;20056;-60
2022/07/22 05:26:15;;;;;;;19.55;13.38;;;18.30;99.90;;;;;;5095501;28;20055;-61
2022/07/22 05:28:42;;;;;;;29.45;14.93;;;18.40;99.90;;;;;;5090064;28;20073;-60
2022/07/22 05:31:09;;;;;;;22.20;13.95;;;18.30;99.90;;;;;;5108424;28;20036;-60
2022/07/22 05:33:37;;;;;;;20.13;13.23;;;18.40;99.90;;;;;;5110490;28;20074;-60
2022/07/22 05:36:23;;;;;;;22.50;14.70;;;18.50;99.90;;;;;;5102818;28;20557;-61
2022/07/22 05:38:51;;;;;;;23.25;14.50;;;18.60;99.90;;;;;;5107629;28;20310;-61
2022/07/22 05:41:17;;;;;;;24.13;13.77;;;18.70;99.90;;;;;;5126966;28;20040;-61
2022/07/22 05:43:44;;;;;;;18.77;12.65;;;18.80;99.90;;;;;;5110682;28;20411;-60
2022/07/22 05:46:13;;;;;;;20.70;12.63;;;18.80;99.90;;;;;;5109579;28;20040;-61
2022/07/22 05:48:41;;;;;;;24.02;13.35;;;18.90;99.90;;;;;;5110229;28;20117;-60
2022/07/22 05:51:12;;;;;;;18.80;12.63;;;19.00;99.90;;;;;;5109685;28;20044;-61
2022/07/22 05:53:41;;;;;;;20.48;12.68;;;19.00;99.90;;;;;;5107827;28;20100;-61
2022/07/22 05:56:11;;;;;;;21.33;13.40;;;19.10;99.90;;;;;;5110143;28;20039;-60
2022/07/22 05:58:42;;;;;;;18.23;11.90;;;19.20;99.90;;;;;;5114331;22;20110;-63
2022/07/22 06:01:11;;;;;;;19.67;12.45;;;19.30;99.90;;;;;;5064174;28;20044;-64
2022/07/22 06:03:39;;;;;;;22.05;13.45;;;19.30;99.90;;;;;;5072400;28;20036;-64
2022/07/22 06:06:08;;;;;;;22.45;13.43;;;19.40;99.90;;;;;;5072676;28;20062;-64
2022/07/22 06:08:36;;;;;;;21.75;12.82;;;19.50;99.90;;;;;;5072890;28;20060;-64
2022/07/22 06:11:03;;;;;;;17.33;11.73;;;19.50;99.90;;;;;;5072310;28;20500;-63
2022/07/22 06:13:30;;;;;;;19.20;12.80;;;19.60;99.90;;;;;;5072505;28;20054;-64
2022/07/22 06:15:57;;;;;;;19.75;13.32;;;19.60;99.90;;;;;;5090860;28;20051;-64
2022/07/22 06:18:26;;;;;;;18.80;12.27;;;19.70;99.90;;;;;;5072402;28;20121;-63
2022/07/22 06:20:52;;;;;;;23.10;13.88;;;19.70;99.90;;;;;;5071487;28;20051;-64
2022/07/22 06:23:19;;;;;;;22.27;12.63;;;19.70;99.90;;;;;;5057760;28;20063;-64
2022/07/22 06:25:46;;;;;;;25.40;13.20;;;19.70;99.90;;;;;;5076176;28;20045;-64
2022/07/22 06:28:33;;;;;;;21.90;13.77;;;19.80;99.90;;;;;;5075057;28;20459;-63
2022/07/22 06:31:01;;;;;;;23.52;13.18;;;19.90;99.90;;;;;;5075213;28;20044;-64
2022/07/22 06:33:29;;;;;;;26.73;13.02;;;19.90;99.90;;;;;;5076356;28;20461;-64
2022/07/22 06:35:56;;;;;;;18.67;12.48;;;19.90;99.90;;;;;;5075765;28;20083;-64
2022/07/22 06:38:25;;;;;;;24.48;13.95;;;20.00;99.90;;;;;;5070544;28;20101;-64
2022/07/22 06:41:20;;;;;;;22.27;13.63;;;20.20;99.90;;;;;;5093141;28;20044;-64
2022/07/22 06:44:08;;;;;;;23.55;13.25;;;20.20;99.90;;;;;;5051115;28;20501;-64
2022/07/22 06:46:46;;;;;;;19.83;13.13;;;20.30;99.90;;;;;;5073527;28;20450;-63
2022/07/22 06:49:16;;;;;;;20.92;12.95;;;20.50;99.90;;;;;;5075983;28;20142;-64
2022/07/22 06:51:44;;;;;;;23.67;13.35;;;20.60;99.90;;;;;;5075351;28;20052;-64
2022/07/22 06:54:11;;;;;;;22.70;13.90;;;20.70;99.90;;;;;;5075428;28;20522;-64
2022/07/22 06:56:38;;;;;;;;;;;20.80;99.90;;;;;;5076140;28;20460;-64
2022/07/22 06:59:08;;;;;;;20.90;12.35;;;21.10;99.90;;;;;;5075624;28;20335;-63
2022/07/22 07:01:35;;;;;;;20.55;13.18;;;21.20;99.90;;;;;;5080808;28;20036;-64
2022/07/22 07:04:02;;;;;;;21.83;12.85;;;21.30;99.90;;;;;;5095864;28;20075;-64
2022/07/22 07:06:30;;;;;;;;;;;21.40;99.90;;;;;;5096152;28;20040;-63
2022/07/22 07:09:15;;;;;;;19.23;13.40;;;21.50;99.90;;;;;;5095677;28;19920;-64
2022/07/22 07:11:52;;;;;;;22.98;13.43;;;21.80;99.90;;;;;;5095141;28;20043;-64
2022/07/22 07:14:38;;;;;;;19.45;12.52;;;21.90;99.90;;;;;;5097102;28;20048;-63
2022/07/22 07:17:15;;;;;;;19.42;13.30;;;22.10;99.90;;;;;;5092236;28;20052;-64
2022/07/22 07:19:42;;;;;;;23.88;13.38;;;22.10;99.90;;;;;;5092200;28;20041;-64
2022/07/22 07:22:09;;;;;;;25.42;13.85;;;22.20;99.90;;;;;;5094700;28;20032;-64
2022/07/22 07:24:36;;;;;;;19.95;12.68;;;22.20;99.90;;;;;;5095471;28;20044;-64
2022/07/22 07:27:04;;;;;;;20.55;13.90;;;22.30;99.90;;;;;;5095511;28;20040;-64
2022/07/22 07:29:31;;;;;;;16.60;11.82;;;22.40;99.90;;;;;;5094597;28;20053;-64
2022/07/22 07:31:59;;;;;;;16.50;12.30;;;22.50;99.90;;;;;;5092096;28;20441;-64
2022/07/22 07:34:25;;;;;;;19.15;12.50;;;22.60;99.90;;;;;;5091960;28;20527;-63
2022/07/22 07:36:52;;;;;;;20.17;12.23;;;22.80;99.90;;;;;;5092011;28;20067;-64
2022/07/22 07:39:19;;;;;;;17.88;12.75;;;23.00;99.90;;;;;;5094380;28;20081;-64
2022/07/22 07:41:46;;;;;;;20.73;13.95;;;23.10;99.90;;;;;;5095156;28;20093;-64
2022/07/22 07:44:21;;;;;;;18.67;12.48;;;23.00;99.90;;;;;;5091931;28;20090;-64
2022/07/22 07:46:48;;;;;;;17.48;12.52;;;23.10;99.90;;;;;;5092434;28;20064;-64
2022/07/22 07:49:15;;;;;;;17.58;12.98;;;23.10;99.90;;;;;;5094998;28;20454;-64
2022/07/22 07:51:41;;;;;;;18.98;12.95;;;23.30;99.90;;;;;;5094520;28;20385;-64
2022/07/22 07:54:10;;;;;;;19.80;13.38;;;23.50;99.90;;;;;;5094802;28;20050;-64
2022/07/22 07:56:38;;;;;;;25.98;13.27;;;23.60;99.90;;;;;;5094534;28;20036;-64
2022/07/22 07:59:05;;;;;;;23.15;13.75;;;23.60;99.90;;;;;;5074342;28;20044;-64
2022/07/22 08:01:52;;;;;;;16.67;12.60;;;23.80;99.90;;;;;;5074042;28;20127;-64
2022/07/22 08:04:28;;;;;;;19.48;13.25;;;23.90;99.90;;;;;;5093923;28;20412;-64
2022/07/22 08:07:14;;;;;;;22.95;13.43;;;23.90;99.90;;;;;;5074494;28;20066;-64
2022/07/22 08:09:43;;;;;;;19.17;13.35;;;23.90;99.90;;;;;;5074253;28;20139;-64
2022/07/22 08:12:21;;;;;;;23.85;14.18;;;24.00;99.90;;;;;;5075064;27;20075;-64
2022/07/22 08:14:57;;;;;;;18.10;12.70;;;24.10;99.90;;;;;;5090769;28;20480;-64
2022/07/22 08:17:43;;;;;;;19.58;13.48;;;24.30;99.90;;;;;;5091192;28;20044;-64
2022/07/22 08:20:11;;;;;;;17.40;12.23;;;24.50;99.90;;;;;;5091945;28;20042;-64
2022/07/22 08:22:43;;;;;;;21.25;13.18;;;24.60;99.90;;;;;;5091194;28;20068;-64
2022/07/22 08:25:11;;;;;;;19.55;12.70;;;24.80;99.90;;;;;;5094029;28;20092;-64
2022/07/22 08:27:38;;;;;;;16.13;11.80;;;24.90;99.90;;;;;;5094105;28;20089;-64
2022/07/22 08:30:05;;;;;;;;;;;25.10;99.90;;;;;;5094275;28;20051;-64
2022/07/22 08:32:34;;;;;;;18.30;11.95;;;25.10;99.90;;;;;;5093770;28;19928;-64
2022/07/22 08:35:02;;;;;;;13.85;10.70;;;25.20;99.90;;;;;;5094157;28;20048;-64
2022/07/22 08:37:28;;;;;;;16.92;10.82;;;25.20;99.90;;;;;;5094071;28;20052;-64
2022/07/22 08:39:55;;;;;;;16.30;11.55;;;25.20;99.90;;;;;;5089685;28;20058;-64
2022/07/22 08:42:24;;;;;;;17.92;10.48;;;25.30;99.90;;;;;;5093849;28;20665;-65
2022/07/22 08:44:52;;;;;;;14.65;10.35;;;25.50;99.90;;;;;;5094023;28;20532;-64
2022/07/22 08:47:23;;;;;;;19.25;10.15;;;25.40;99.90;;;;;;5111933;28;20534;-64
2022/07/22 08:50:27;;;;;;;16.48;10.75;;;25.40;99.90;;;;;;5062208;28;20047;-64
2022/07/22 08:53:00;;;;;;;14.68;10.27;;;25.70;99.90;;;;;;5090518;28;20587;-64
2022/07/22 08:55:27;;;;;;;;;;;25.80;99.90;;;;;;5090854;28;20036;-64
2022/07/22 08:57:55;;;;;;;16.15;10.60;;;25.90;99.90;;;;;;5090178;28;20373;-65
2022/07/22 09:00:22;;;;;;;12.38;9.25;;;25.90;99.90;;;;;;5099393;28;20028;-64
2022/07/22 09:02:50;;;;;;;12.85;10.07;;;26.00;99.90;;;;;;5090460;28;20040;-64
2022/07/22 09:05:18;;;;;;;16.67;10.68;;;26.00;99.90;;;;;;5090322;28;20048;-64
2022/07/22 09:08:06;;;;;;;12.75;9.52;;;26.00;99.90;;;;;;5089859;28;20038;-64
2022/07/22 09:11:19;;;;;;;11.82;9.70;;;26.00;99.90;;;;;;5077118;28;20153;-64
2022/07/22 09:14:05;;;;;;;13.45;10.05;;;26.10;99.90;;;;;;5092023;28;20043;-64
2022/07/22 09:16:52;;;;;;;13.80;10.07;;;26.10;99.90;;;;;;5090914;28;20131;-65
2022/07/22 09:19:35;;;;;;;14.27;9.98;;;26.10;99.90;;;;;;5098158;28;20024;-64
2022/07/22 09:22:34;;;;;;;11.05;8.60;;;26.20;99.90;;;;;;5091632;28;20194;-65
2022/07/22 09:25:34;;;;;;;13.70;9.63;;;26.20;99.90;;;;;;5090233;28;20062;-64
2022/07/22 09:28:22;;;;;;;12.93;9.57;;;26.20;99.90;;;;;;5097915;28;20042;-65
2022/07/22 09:31:33;;;;;;;11.73;8.63;;;26.40;99.90;;;;;;5091297;28;20534;-64
2022/07/22 09:34:30;;;;;;;14.40;9.32;;;26.40;99.90;;;;;;5090193;28;20040;-65
2022/07/22 09:37:03;;;;;;;13.05;8.45;;;26.50;99.90;;;;;;5093042;28;20035;-64
2022/07/22 09:39:32;;;;;;;10.98;9.23;;;26.70;99.90;;;;;;5093294;28;20131;-62
2022/07/22 09:42:03;;;;;;;11.73;8.75;;;26.80;99.90;;;;;;5092997;28;20071;-62
2022/07/22 09:44:29;;;;;;;12.73;8.40;;;26.90;99.90;;;;;;5089522;28;20115;-64
2022/07/22 09:47:01;;;;;;;10.45;8.48;;;26.80;99.90;;;;;;5093221;28;20711;-65
2022/07/22 09:50:01;;;;;;;12.90;8.18;;;26.70;99.90;;;;;;5092925;28;20052;-65
2022/07/22 09:52:46;;;;;;;13.57;9.32;;;26.80;99.90;;;;;;5100810;28;20105;-64
2022/07/22 09:55:22;;;;;;;10.85;8.73;;;26.90;99.90;;;;;;5093067;28;20051;-65
2022/07/22 09:57:50;;;;;;;14.07;9.50;;;26.80;99.90;;;;;;5092696;28;20058;-64
2022/07/22 10:00:23;;;;;;;14.73;9.18;;;26.80;99.90;;;;;;5074994;28;20119;-65
2022/07/22 10:03:00;;;;;;;11.85;8.55;;;26.80;99.90;;;;;;5070562;28;20040;-64
2022/07/22 10:05:42;;;;;;;11.57;9.40;;;26.90;99.90;;;;;;5069096;28;20036;-62
2022/07/22 10:08:09;;;;;;;14.82;9.35;;;27.10;99.90;;;;;;5090039;28;20062;-64
2022/07/22 10:10:38;;;;;;;16.23;9.57;;;27.20;99.90;;;;;;5088903;28;20459;-62
2022/07/22 10:13:06;;;;;;;13.85;9.20;;;27.20;99.90;;;;;;5074657;28;20412;-62
2022/07/22 10:15:34;;;;;;;14.10;9.25;;;27.20;99.90;;;;;;5073444;28;20086;-65
2022/07/22 10:18:13;;;;;;;13.90;8.93;;;27.20;99.90;;;;;;5064476;28;20077;-65
2022/07/22 10:20:40;;;;;;;14.68;9.45;;;27.40;99.90;;;;;;5066602;28;20151;-64
2022/07/22 10:23:08;;;;;;;;;;;27.50;99.90;;;;;;5070219;28;20044;-64
2022/07/22 10:25:52;;;;;;;13.70;9.93;;;27.50;99.90;;;;;;5110243;28;20479;-65
2022/07/22 10:28:26;;;;;;;13.55;10.40;;;27.50;99.90;;;;;;5069531;28;20032;-64
2022/07/22 10:31:14;;;;;;;15.85;10.95;;;27.50;99.90;;;;;;5091446;28;20044;-62
2022/07/22 10:33:41;;;;;;;15.75;10.70;;;27.50;99.90;;;;;;5077232;28;20257;-64
2022/07/22 10:36:09;;;;;;;;;;;27.50;99.90;;;;;;5074721;28;20051;-65
2022/07/22 10:38:37;;;;;;;14.40;10.32;;;27.50;99.90;;;;;;5064353;28;19927;-65
2022/07/22 10:41:06;;;;;;;;;;;27.60;99.90;;;;;;5075651;28;20040;-62
2022/07/22 10:43:42;;;;;;;12.93;9.70;;;27.60;99.90;;;;;;5094135;28;19924;-65
2022/07/22 10:46:09;;;;;;;14.63;11.00;;;27.60;99.90;;;;;;5094135;28;20456;-64
2022/07/22 10:48:36;;;;;;;14.00;10.15;;;27.70;99.90;;;;;;5089842;28;20126;-65
2022/07/22 10:51:11;;;;;;;11.68;9.60;;;27.90;99.90;;;;;;5081987;28;20106;-65
2022/07/22 10:53:43;;;;;;;11.93;9.02;;;27.90;99.90;;;;;;5073435;28;20056;-65
2022/07/22 10:56:23;;;;;;;17.80;9.75;;;27.90;99.90;;;;;;5083379;28;20492;-65
2022/07/22 10:59:10;;;;;;;15.05;10.35;;;28.00;99.90;;;;;;5103275;28;20052;-64
2022/07/22 11:01:39;;;;;;;18.30;12.00;;;28.20;99.90;;;;;;5114365;28;20395;-62
2022/07/22 11:04:12;;;;;;;14.02;10.43;;;28.20;99.90;;;;;;5114171;28;20296;-62
2022/07/22 11:06:46;;;;;;;13.60;10.32;;;28.30;99.90;;;;;;5102360;28;20410;-63
2022/07/22 11:09:13;;;;;;;15.30;10.32;;;28.40;99.90;;;;;;5092351;28;20040;-63
2022/07/22 11:11:54;;;;;;;13.90;10.15;;;28.40;99.90;;;;;;5112969;28;20051;-63
2022/07/22 11:14:26;;;;;;;14.80;11.13;;;28.40;99.90;;;;;;5110476;27;20458;-63
2022/07/22 11:17:04;;;;;;;13.50;10.25;;;28.40;99.90;;;;;;5111269;28;20092;-63
2022/07/22 11:19:32;;;;;;;13.02;10.40;;;28.30;99.90;;;;;;5103803;27;20039;-63
2022/07/22 11:22:03;;;;;;;15.02;10.10;;;28.40;99.90;;;;;;5100977;28;20042;-63
2022/07/22 11:24:32;;;;;;;12.88;10.57;;;28.30;99.90;;;;;;5102066;28;20515;-63
2022/07/22 11:27:00;;;;;;;18.45;11.68;;;28.40;99.90;;;;;;5108468;28;20532;-63
2022/07/22 11:29:40;;;;;;;13.75;10.32;;;28.50;99.90;;;;;;5108294;27;20434;-63
2022/07/22 11:32:09;;;;;;;14.18;9.85;;;28.50;99.90;;;;;;5107883;28;20043;-63
2022/07/22 11:34:42;;;;;;;14.05;10.13;;;28.60;99.90;;;;;;5105344;28;20067;-63
2022/07/22 11:37:09;;;;;;;12.02;9.55;;;28.60;99.90;;;;;;5103319;27;20043;-63
2022/07/22 11:39:35;;;;;;;;;;;28.70;99.90;;;;;;5110132;28;20036;-63
2022/07/22 11:42:03;;;;;;;11.82;9.43;;;28.70;99.90;;;;;;5104168;28;19923;-63
2022/07/22 11:44:33;;;;;;;14.40;10.07;;;28.80;99.90;;;;;;5109221;28;20038;-63
2022/07/22 11:47:00;;;;;;;14.68;9.82;;;28.90;99.90;;;;;;5108538;28;20850;-63
2022/07/22 11:49:29;;;;;;;17.70;9.90;;;28.80;99.90;;;;;;5109276;28;20054;-63
2022/07/22 11:51:56;;;;;;;11.77;9.77;;;28.80;99.90;;;;;;5109222;28;20031;-64
2022/07/22 11:54:23;;;;;;;14.80;10.35;;;28.80;99.90;;;;;;5108856;28;20040;-64
2022/07/22 11:56:50;;;;;;;;;;;28.80;99.90;;;;;;5109229;28;20039;-63
2022/07/22 11:59:23;;;;;;;12.23;9.70;;;28.80;99.90;;;;;;5112245;22;20368;-60
2022/07/22 12:01:50;;;;;;;13.77;9.85;;;28.90;99.90;;;;;;5087244;28;20526;-60
2022/07/22 12:04:20;;;;;;;11.32;9.50;;;28.90;99.90;;;;;;5085304;28;20043;-60
2022/07/22 12:06:47;;;;;;;11.50;9.65;;;29.00;99.90;;;;;;5083122;28;20087;-60
2022/07/22 12:09:18;;;;;;;13.32;9.60;;;29.10;99.90;;;;;;5096911;28;20055;-60
2022/07/22 12:11:47;;;;;;;14.48;9.75;;;29.00;99.90;;;;;;5109956;28;20040;-60
2022/07/22 12:14:16;;;;;;;14.15;9.70;;;29.00;99.90;;;;;;5112875;28;20059;-60
2022/07/22 12:16:54;;;;;;;13.32;9.90;;;29.10;99.90;;;;;;5107402;28;20512;-60
2022/07/22 12:19:21;;;;;;;12.23;9.82;;;29.10;99.90;;;;;;5104102;28;20032;-60
2022/07/22 12:21:57;;;;;;;12.82;9.05;;;29.10;99.90;;;;;;5111655;28;20438;-60
2022/07/22 12:24:40;;;;;;;14.77;10.43;;;29.20;99.90;;;;;;5112839;28;20044;-60
2022/07/22 12:27:08;;;;;;;15.07;9.65;;;29.20;99.90;;;;;;5105644;28;20047;-59
2022/07/22 12:29:35;;;;;;;12.00;10.02;;;29.30;99.90;;;;;;5103555;28;20062;-60
2022/07/22 12:32:03;;;;;;;12.30;10.18;;;29.30;99.90;;;;;;5112238;28;20044;-60
2022/07/22 12:34:42;;;;;;;12.60;9.10;;;29.30;99.90;;;;;;5112512;28;20047;-60
2022/07/22 12:37:19;;;;;;;11.93;9.57;;;29.30;99.90;;;;;;5100762;28;20032;-60
2022/07/22 12:40:31;;;;;;;13.57;9.93;;;29.30;99.90;;;;;;5070176;28;20073;-60
2022/07/22 12:43:06;;;;;;;12.63;9.75;;;29.30;99.90;;;;;;5078395;28;20072;-60
2022/07/22 12:45:35;;;;;;;13.60;10.15;;;29.40;99.90;;;;;;5085856;28;20036;-59
2022/07/22 12:48:03;;;;;;;14.07;9.38;;;29.40;99.90;;;;;;5079288;28;20041;-60
2022/07/22 12:50:37;;;;;;;12.82;9.82;;;29.50;99.90;;;;;;5079038;28;20047;-59